Nordborg, Denmark
Current Conditions -  °F | °C
As of 7:50 AM on Saturday 25 Oct 2014 (Local Time) from EKSB Reporting Station
Broken Clouds Broken Clouds  
Wind Chill: 11°   Ceiling: 600
Heat Index: 11°   Visibility: 4mi
Dew Point: 10°   Wind: 10mph
Humidity: 94%   Direction: 190°S
Pressure: 29.91"   Gusts: NA
Location:  55.06°N, 9.74°E
Report Text: EKSB 250550Z 19009KT 160V220 6000 BKN006 11/10 Q1013
Loading
Personal Weather Stations






























Interactive Weather Map
Tropical Storm Tracking
New forecast layout! Learn more

10-Day Weather Forecast

Advertisements
Track Severe Weather on mobile